Terminal Aerodrome Forecast
Issued by NWS Jacksonville, FL

Home | Current Version | Previous Version | Text Only | Print | Product List | Glossary On
Versions: 1 2 3 4 5 6 7 8 9 10 11 12 13 14 15 16 17 18 19 20 21 22 23 24 25 26 27 28 29 30
000
FTUS42 KJAX 012322
TAFJAX
TAF
KJAX 012322Z 0200/0224 03004KT 6SM BR OVC006
     FM020300 02003KT 4SM BR OVC003
     FM020430 02003KT 1SM BR OVC002
     FM020600 01003KT 1/2SM FG OVC001
     FM021300 05002KT 2SM BR BKN005
     FM021500 VRB03KT P6SM BKN018
     FM021800 VRB03KT P6SM BKN035=

USA.gov is the U.S. government's official web portal to all federal, state and local government web resources and services.